createdAt,value
2023-03-26T00:02:24.724Z,15.10
2023-03-26T00:07:27.897Z,15.07
2023-03-26T00:12:31.945Z,15.06
2023-03-26T00:17:34.697Z,15.06
2023-03-26T00:22:37.581Z,15.03
2023-03-26T00:27:41.798Z,15.02
2023-03-26T00:32:44.615Z,14.99
2023-03-26T00:37:58.273Z,14.98
2023-03-26T00:43:02.521Z,14.99
2023-03-26T00:48:05.728Z,14.97
2023-03-26T00:53:11.993Z,14.93
2023-03-26T00:58:16.665Z,14.92
2023-03-26T01:03:26.926Z,14.92
2023-03-26T01:08:33.331Z,14.89
2023-03-26T01:13:39.347Z,14.88
2023-03-26T01:18:42.118Z,14.87
2023-03-26T01:23:48.985Z,14.85
2023-03-26T01:28:56.758Z,14.84
2023-03-26T01:34:03.754Z,14.84
2023-03-26T01:39:09.968Z,14.81
2023-03-26T01:44:19.262Z,14.80
2023-03-26T01:49:22.268Z,14.79
2023-03-26T01:54:29.659Z,14.77
2023-03-26T01:59:50.370Z,14.75
2023-03-26T02:04:56.962Z,14.76
2023-03-26T02:10:05.535Z,14.73
2023-03-26T02:15:11.437Z,14.72
2023-03-26T02:20:14.961Z,14.72
2023-03-26T02:25:19.528Z,14.70
2023-03-26T02:30:26.666Z,14.71
2023-03-26T02:35:32.489Z,14.68
2023-03-26T02:40:37.395Z,14.68
2023-03-26T02:45:42.919Z,14.66
2023-03-26T02:51:06.639Z,14.63
2023-03-26T02:56:33.923Z,14.62
2023-03-26T03:02:07.122Z,14.57
2023-03-26T03:07:14.316Z,14.55
2023-03-26T03:12:17.049Z,14.53
2023-03-26T03:17:21.761Z,14.48
2023-03-26T03:22:24.620Z,14.49
2023-03-26T03:27:27.382Z,14.47
2023-03-26T03:32:42.764Z,14.44
2023-03-26T03:37:46.194Z,14.41
2023-03-26T03:42:49.055Z,14.39
2023-03-26T03:48:02.882Z,14.37
2023-03-26T03:53:18.487Z,14.35
2023-03-26T03:58:28.013Z,14.35
2023-03-26T04:03:38.804Z,14.36
2023-03-26T04:08:47.293Z,14.34
2023-03-26T04:13:50.269Z,14.35
2023-03-26T04:19:10.703Z,14.33
2023-03-26T04:24:13.775Z,14.32
2023-03-26T04:29:44.038Z,14.32
2023-03-26T04:34:53.802Z,14.29
2023-03-26T04:40:00.458Z,14.31
2023-03-26T04:45:14.754Z,14.28
2023-03-26T04:50:22.455Z,14.29
2023-03-26T04:55:27.148Z,14.30
2023-03-26T05:00:39.172Z,14.28
2023-03-26T05:05:43.406Z,14.27
2023-03-26T05:10:46.475Z,14.25
2023-03-26T05:15:55.588Z,14.23
2023-03-26T05:21:11.137Z,14.23
2023-03-26T05:26:15.682Z,14.20
2023-03-26T05:31:21.086Z,14.20
2023-03-26T05:36:28.285Z,14.17
2023-03-26T05:41:44.023Z,14.17
2023-03-26T05:46:47.060Z,14.17
2023-03-26T05:51:57.803Z,14.16
2023-03-26T05:57:28.392Z,14.15
2023-03-26T06:03:00.760Z,14.14
2023-03-26T06:08:31.225Z,14.11
2023-03-26T06:13:33.932Z,14.12
2023-03-26T06:18:37.303Z,14.13
2023-03-26T06:24:00.789Z,14.11
2023-03-26T06:29:25.979Z,14.13
2023-03-26T06:34:54.704Z,14.10
2023-03-26T06:39:59.052Z,14.08
2023-03-26T06:45:20.442Z,14.08
2023-03-26T06:50:48.949Z,14.08
2023-03-26T06:56:22.284Z,14.05
2023-03-26T07:01:34.808Z,14.06
2023-03-26T07:06:55.943Z,14.05
2023-03-26T07:12:18.484Z,14.03
2023-03-26T07:17:39.914Z,14.03
2023-03-26T07:22:57.920Z,14.02
2023-03-26T07:28:16.963Z,14.02
2023-03-26T07:33:51.981Z,14.04
2023-03-26T07:39:32.201Z,14.02
2023-03-26T07:45:04.523Z,14.00
2023-03-26T07:50:19.830Z,14.00
2023-03-26T07:55:48.000Z,14.02
2023-03-26T08:01:23.101Z,14.01
2023-03-26T08:06:33.738Z,14.00
2023-03-26T08:11:59.539Z,14.00
2023-03-26T08:17:08.827Z,13.99
2023-03-26T08:22:16.732Z,14.00
2023-03-26T08:27:23.975Z,13.99
2023-03-26T08:32:28.713Z,13.98
2023-03-26T08:37:31.667Z,13.96
2023-03-26T08:43:23.532Z,13.96
2023-03-26T08:48:51.267Z,13.96
2023-03-26T08:54:06.521Z,13.93
2023-03-26T08:59:44.760Z,13.95
2023-03-26T09:05:41.123Z,13.94
2023-03-26T09:11:18.277Z,13.84
2023-03-26T09:17:02.430Z,13.92
2023-03-26T09:22:28.440Z,13.92
2023-03-26T09:27:41.737Z,13.92
2023-03-26T09:33:17.709Z,13.93
2023-03-26T09:38:38.272Z,13.91
2023-03-26T09:43:55.775Z,14.26
2023-03-26T09:49:11.784Z,14.82
2023-03-26T09:54:46.376Z,15.46
2023-03-26T10:00:10.814Z,16.10
2023-03-26T10:05:28.208Z,16.74
2023-03-26T10:10:37.026Z,17.32
2023-03-26T10:15:53.318Z,17.77
2023-03-26T10:21:01.093Z,17.87
2023-03-26T10:26:27.141Z,18.08
2023-03-26T10:31:44.785Z,18.21
2023-03-26T10:36:51.507Z,18.26
2023-03-26T10:42:00.526Z,18.24
2023-03-26T10:47:14.297Z,18.28
2023-03-26T10:52:20.820Z,18.28
2023-03-26T10:57:35.145Z,18.27
2023-03-26T11:02:41.655Z,18.35
2023-03-26T11:07:51.708Z,18.32
2023-03-26T11:12:57.001Z,18.27
2023-03-26T11:18:26.040Z,18.22
2023-03-26T11:23:36.007Z,18.18
2023-03-26T11:29:03.552Z,18.19
2023-03-26T11:34:15.699Z,18.12
2023-03-26T11:39:23.449Z,17.97
2023-03-26T11:44:28.771Z,17.88
2023-03-26T11:49:33.353Z,17.79
2023-03-26T11:54:36.925Z,17.72
2023-03-26T11:59:55.822Z,17.64
2023-03-26T12:05:17.861Z,17.60
2023-03-26T12:10:29.492Z,17.52
2023-03-26T12:15:32.664Z,17.45
2023-03-26T12:21:04.527Z,17.40
2023-03-26T12:26:15.904Z,17.33
2023-03-26T12:31:19.671Z,17.25
2023-03-26T12:36:26.602Z,17.21
2023-03-26T12:43:40.206Z,17.14
2023-03-26T12:47:57.132Z,17.10
2023-03-26T12:53:06.800Z,17.05
2023-03-26T12:58:23.604Z,17.07
2023-03-26T13:03:41.773Z,17.18
2023-03-26T13:09:26.321Z,17.23
2023-03-26T13:14:52.766Z,17.31
2023-03-26T13:20:01.938Z,17.40
2023-03-26T13:25:18.187Z,17.45
2023-03-26T13:30:31.118Z,17.45
2023-03-26T13:35:37.649Z,17.49
2023-03-26T13:40:47.898Z,17.44
2023-03-26T13:45:57.420Z,17.46
2023-03-26T13:51:04.887Z,17.43
2023-03-26T13:56:11.369Z,17.41
2023-03-26T14:01:17.482Z,17.37
2023-03-26T14:06:31.983Z,17.32
2023-03-26T14:11:43.599Z,17.25
2023-03-26T14:16:51.516Z,17.21
2023-03-26T14:22:18.833Z,17.11
2023-03-26T14:27:45.603Z,17.08
2023-03-26T14:33:03.203Z,17.08
2023-03-26T14:38:25.028Z,17.10
2023-03-26T14:43:57.080Z,17.03
2023-03-26T14:49:10.925Z,16.96
2023-03-26T14:54:15.862Z,16.91
2023-03-26T14:59:47.444Z,16.86
2023-03-26T15:05:19.464Z,16.81
2023-03-26T15:10:49.582Z,16.76
2023-03-26T15:16:38.154Z,16.76
2023-03-26T15:22:18.145Z,16.69
2023-03-26T15:27:51.963Z,16.66
2023-03-26T15:33:14.260Z,16.59
2023-03-26T15:38:57.118Z,16.55
2023-03-26T15:44:36.141Z,16.52
2023-03-26T15:49:52.161Z,16.48
2023-03-26T15:54:59.598Z,16.45
2023-03-26T16:00:22.768Z,16.38
2023-03-26T16:05:33.274Z,16.36
2023-03-26T16:10:40.875Z,16.34
2023-03-26T16:15:45.309Z,16.29
2023-03-26T16:20:50.940Z,16.28
2023-03-26T16:26:08.999Z,16.22
2023-03-26T16:31:38.839Z,16.19
2023-03-26T16:36:44.302Z,16.12
2023-03-26T16:42:06.114Z,16.08
2023-03-26T16:47:29.400Z,16.01
2023-03-26T16:52:42.813Z,15.99
2023-03-26T16:57:56.009Z,15.92
2023-03-26T17:03:12.923Z,15.90
2023-03-26T17:08:18.994Z,15.81
2023-03-26T17:13:45.893Z,15.80
2023-03-26T17:18:55.484Z,15.77
2023-03-26T17:24:15.592Z,15.73
2023-03-26T17:29:33.939Z,15.69
2023-03-26T17:34:56.540Z,15.63
2023-03-26T17:40:35.835Z,15.62
2023-03-26T17:45:39.343Z,15.58
2023-03-26T17:50:48.601Z,15.53
2023-03-26T17:55:52.156Z,15.50
2023-03-26T18:01:02.072Z,15.48
2023-03-26T18:06:12.076Z,15.44
2023-03-26T18:11:36.833Z,15.41
2023-03-26T18:16:42.242Z,15.37
2023-03-26T18:21:50.017Z,15.34
2023-03-26T18:26:56.014Z,15.31
2023-03-26T18:32:02.466Z,15.29
2023-03-26T18:37:18.150Z,15.27
2023-03-26T18:42:23.677Z,15.25
2023-03-26T18:47:29.233Z,15.23
2023-03-26T18:52:33.518Z,15.19
2023-03-26T18:57:36.486Z,15.15
2023-03-26T19:02:39.802Z,15.13
2023-03-26T19:07:45.790Z,15.10
2023-03-26T19:13:14.474Z,15.04
2023-03-26T19:18:18.639Z,15.03
2023-03-26T19:23:57.625Z,15.02
2023-03-26T19:29:00.739Z,15.00
2023-03-26T19:34:13.559Z,14.99
2023-03-26T19:39:46.167Z,14.96
2023-03-26T19:45:19.317Z,14.92
2023-03-26T19:50:26.484Z,14.88
2023-03-26T19:55:30.602Z,14.86
2023-03-26T20:00:33.902Z,14.84
2023-03-26T20:05:37.431Z,14.83
2023-03-26T20:10:41.657Z,14.80
2023-03-26T20:15:47.132Z,14.79
2023-03-26T20:20:50.630Z,14.78
2023-03-26T20:25:54.930Z,14.74
2023-03-26T20:30:58.062Z,14.71
2023-03-26T20:36:01.678Z,14.69
2023-03-26T20:41:06.155Z,14.68
2023-03-26T20:46:12.301Z,14.66
2023-03-26T20:51:15.562Z,14.63
2023-03-26T20:56:21.800Z,14.62
2023-03-26T21:01:24.992Z,14.86
2023-03-26T21:06:27.759Z,15.27
2023-03-26T21:11:46.756Z,15.74
2023-03-26T21:16:50.044Z,16.25
2023-03-26T21:21:59.072Z,16.67
2023-03-26T21:27:09.970Z,17.08
2023-03-26T21:32:14.297Z,17.34
2023-03-26T21:37:18.827Z,17.49
2023-03-26T21:48:30.018Z,17.73
2023-03-26T21:53:33.174Z,17.77
2023-03-26T21:58:45.941Z,17.78
2023-03-26T22:03:56.826Z,17.76
2023-03-26T22:09:00.491Z,17.74
2023-03-26T22:14:03.211Z,17.76
2023-03-26T22:19:07.369Z,17.66
2023-03-26T22:25:02.897Z,17.57
2023-03-26T22:30:06.486Z,17.47
2023-03-26T22:35:20.573Z,17.31
2023-03-26T22:40:23.348Z,17.32
2023-03-26T22:45:26.141Z,17.21
2023-03-26T22:50:30.414Z,17.09
2023-03-26T22:55:33.147Z,16.98
2023-03-26T23:00:36.173Z,16.88
2023-03-26T23:05:40.276Z,16.81
2023-03-26T23:10:43.907Z,16.68
2023-03-26T23:15:49.619Z,16.60
2023-03-26T23:20:55.371Z,16.46
2023-03-26T23:25:59.766Z,16.33
2023-03-26T23:31:04.250Z,16.26
2023-03-26T23:36:09.721Z,16.16
2023-03-26T23:41:15.267Z,16.09
2023-03-26T23:46:22.029Z,16.00
2023-03-26T23:51:26.294Z,15.93
2023-03-26T23:56:29.678Z,15.86
